Airfield :







YOU CAN JOIN US ON...

 
LOGIN :

Register | Disclaimer

   EN    FR    IT 

 









Legend :    VFR   Marginal VFR   IFR   Intensive IFR   Very Intensive IFR
Visi :
Ceiling :
>= 8 km
>= 3000ft
5 to 8 km
1000 to 3000 ft
1500m to 5 km
500 to 1000 ft
800 to 1500m
200 to 500 ft
< 800m
< 200 ft
Symbols :   Thunderstorms  Fog  Heavy snow  Heavy precipitations  Wind > 20 kt






- Airport Elevation : 408 ft


KMLT - Millinocket Municipal

CURRENT METAR :
  • 090753Z AUTO 04005KT 6SM -RA BR SCT005 BKN018 OVC024 14/14 A2982 RMK AO2 SLP103 P0014 T01440144

EXPIRED METARs :
  • 090739Z AUTO VRB06KT 4SM -RA BR SCT005 OVC014 14/14 A2983 RMK AO2 P0013 T01440144
  • 090719Z AUTO 02006KT 2 1/2SM +RA BR FEW005 OVC013 14/14 A2983 RMK AO2 P0007 T01440144
  • 090653Z AUTO 06004KT 8SM -RA SCT006 OVC016 14/14 A2982 RMK AO2 SLP102 P0016 T01440144
  • 090631Z AUTO 04005KT 3SM -RA BR SCT005 OVC014 14/14 A2982 RMK AO2 P0014 T01390139
  • 090614Z AUTO 06004KT 4SM RA BR BKN006 OVC010 14/14 A2983 RMK AO2 P0004 T01440144
  • 090604Z AUTO 02005KT 3SM RA BR BKN004 OVC008 14/14 A2984 RMK AO2 P0002 T01440144
  • 090553Z AUTO 03004KT 1 1/2SM RA BR OVC004 14/14 A2983 RMK AO2 RAB45 SLP108 P0004 60014 T01440144 10144 20139 58014
  • 090531Z AUTO 05003KT 1 3/4SM BR OVC004 14/14 A2984 RMK AO2 CIG 003V007 T01440144

TAF N/A
KZBW FIR / North America



MET'MAP, your aeronautical weather chart ! - Copyright ORBIFLY December 2007 - Disclaimer

ORBIFLY MET'MAP TEAM :

Programming & Development : Alexandra Zaïnal
Original concept : Baudouin d'Aumeries
Technical & hardware support : Manuel Goepfert
Assistance : Marc-Olivier Méhu




SOURCES & CREDITS :

   NOAA